Time;durP1;ratioP1;P1;durP2;ratioP2;P2;SDS_P1;SDS_P2;PMS_P1;PMS_P2;Temp;Humidity;BMP_temperature;BMP_pressure;BME280_temperature;BME280_humidity;BME280_pressure;Samples;Min_cycle;Max_cycle;Signal;HPM_P1;HPM_P2
2022/01/12 00:01:05;;;;;;;19.05;13.75;;;;;;;1.69;82.06;103480.63;5037150;28;20070;-72
2022/01/12 00:03:34;;;;;;;25.50;13.57;;;;;;;1.72;82.57;103492.09;5051436;28;20055;-72
2022/01/12 00:06:00;;;;;;;20.00;12.48;;;;;;;1.75;82.68;103498.25;5019350;28;20560;-74
2022/01/12 00:08:26;;;;;;;22.92;12.93;;;;;;;1.78;82.20;103499.38;5032252;28;20401;-73
2022/01/12 00:10:52;;;;;;;20.02;12.80;;;;;;;1.81;81.56;103498.66;5020328;28;20496;-73
2022/01/12 00:13:17;;;;;;;17.55;12.43;;;;;;;1.84;81.93;103511.78;5037734;28;20066;-72
2022/01/12 00:15:43;;;;;;;22.75;12.88;;;;;;;1.86;82.35;103517.97;5036420;28;20101;-72
2022/01/12 00:18:09;;;;;;;21.52;14.25;;;;;;;1.89;82.81;103528.50;5021610;28;20025;-73
2022/01/12 00:20:36;;;;;;;19.20;13.57;;;;;;;1.93;82.89;103527.03;5037426;28;20032;-72
2022/01/12 00:23:02;;;;;;;20.00;13.27;;;;;;;1.96;81.90;103528.13;5044598;28;20025;-73
2022/01/12 00:25:31;;;;;;;24.38;12.57;;;;;;;1.97;82.39;103522.16;5036593;28;20024;-72
2022/01/12 00:33:24;;;;;;;19.17;12.82;;;;;;;1.99;82.31;103520.56;5055169;28;20098;-72
2022/01/12 00:35:53;;;;;;;20.25;12.40;;;;;;;2.00;81.14;103529.25;5023395;28;20032;-72
2022/01/12 00:38:20;;;;;;;24.33;14.40;;;;;;;2.04;82.39;103534.72;5060332;28;20039;-72
2022/01/12 00:40:48;;;;;;;16.73;12.65;;;;;;;2.08;82.61;103540.97;5034658;28;20029;-72
2022/01/12 00:43:16;;;;;;;19.00;13.27;;;;;;;2.07;81.85;103536.63;5052363;28;20120;-72
2022/01/12 00:45:42;;;;;;;20.25;13.18;;;;;;;2.10;82.57;103538.47;5020111;28;20028;-73
2022/01/12 00:48:10;;;;;;;18.98;13.18;;;;;;;2.11;82.66;103548.94;5035367;28;20064;-73
2022/01/12 00:50:37;;;;;;;23.05;14.38;;;;;;;2.14;81.85;103556.94;5050202;28;20083;-72
2022/01/12 00:53:06;;;;;;;20.65;13.85;;;;;;;2.12;81.73;103555.91;5052600;28;20050;-72
2022/01/12 00:55:32;;;;;;;24.35;14.88;;;;;;;2.12;81.66;103552.44;5050307;28;20120;-72
2022/01/12 00:57:58;;;;;;;23.45;15.85;;;;;;;2.11;82.01;103560.97;5032407;28;20037;-72
2022/01/12 01:00:25;;;;;;;23.73;14.25;;;;;;;2.11;81.67;103563.56;5019801;28;20062;-72
2022/01/12 01:02:54;;;;;;;24.92;13.63;;;;;;;2.09;82.29;103560.88;5052514;28;20031;-72
2022/01/12 01:05:24;;;;;;;25.30;14.50;;;;;;;2.07;83.22;103562.47;5032911;28;20064;-72
2022/01/12 01:07:51;;;;;;;22.73;15.40;;;;;;;2.04;83.28;103570.94;5054445;28;20032;-72
2022/01/12 01:10:29;;;;;;;23.63;15.60;;;;;;;1.98;83.65;103565.31;5036482;28;20024;-73
2022/01/12 01:12:54;;;;;;;24.15;14.10;;;;;;;1.96;84.45;103573.78;5052143;28;20067;-72
2022/01/12 01:15:29;;;;;;;24.05;14.23;;;;;;;1.95;84.55;103570.28;5035635;28;20055;-72
2022/01/12 01:26:06;;;;;;;27.15;17.52;;;;;;;1.79;86.00;103551.97;5031250;28;20186;-73
2022/01/12 01:28:32;;;;;;;21.02;13.88;;;;;;;1.73;85.89;103542.97;5034359;28;20123;-73
2022/01/12 01:30:57;;;;;;;29.83;18.13;;;;;;;1.65;86.33;103549.34;5019194;28;20119;-73
2022/01/12 01:33:23;;;;;;;28.40;16.67;;;;;;;1.61;86.66;103556.75;5016078;28;20045;-73
2022/01/12 01:35:54;;;;;;;29.08;17.60;;;;;;;1.53;86.93;103564.00;5030243;28;20440;-73
2022/01/12 01:38:20;;;;;;;33.63;17.35;;;;;;;1.52;87.09;103569.94;5045582;28;20043;-73
2022/01/12 01:40:46;;;;;;;28.23;18.33;;;;;;;1.49;87.62;103569.72;5032775;28;20029;-72
2022/01/12 01:44:09;;;;;;;26.38;18.35;;;;;;;1.46;87.99;103574.69;5011884;28;20116;-73
2022/01/12 01:54:13;;;;;;;24.33;17.23;;;;;;;1.33;88.67;103575.53;5051589;28;20038;-73
2022/01/12 01:56:39;;;;;;;31.77;19.75;;;;;;;1.30;88.83;103575.31;5052954;28;20412;-73
2022/01/12 01:59:05;;;;;;;27.33;18.92;;;;;;;1.25;89.59;103550.81;5016941;28;20043;-73
2022/01/12 02:01:31;;;;;;;35.67;20.00;;;;;;;1.16;90.54;103553.66;5028462;28;20169;-72
2022/01/12 02:04:02;;;;;;;26.35;18.45;;;;;;;1.15;90.13;103555.34;5050877;28;20055;-72
2022/01/12 02:06:29;;;;;;;29.48;17.90;;;;;;;1.10;90.21;103546.38;5046001;28;20032;-73
2022/01/12 02:08:55;;;;;;;30.38;17.83;;;;;;;1.07;90.14;103537.53;5051285;28;20077;-73
2022/01/12 02:11:31;;;;;;;27.88;19.05;;;;;;;1.06;90.51;103543.47;5051967;28;20047;-72
2022/01/12 02:14:00;;;;;;;34.72;20.52;;;;;;;1.00;90.80;103541.34;5051817;28;20476;-72
2022/01/12 02:16:36;;;;;;;32.20;19.90;;;;;;;0.98;90.53;103538.66;5051805;28;20056;-72
2022/01/12 02:19:31;;;;;;;36.20;21.55;;;;;;;0.97;91.12;103544.59;5021267;28;20060;-72
2022/01/12 02:35:49;;;;;;;32.60;18.67;;;;;;;1.06;91.10;103569.31;5058275;28;20043;-72
2022/01/12 02:41:02;;;;;;;31.08;19.63;;;;;;;1.11;90.64;103568.84;5067398;28;20071;-72
2022/01/12 02:53:37;;;;;;;29.27;19.55;;;;;;;1.21;90.56;103572.97;5070049;28;20533;-74
2022/01/12 02:54:18;;;;;;;31.45;18.70;;;;;;;1.25;90.50;103575.00;5049257;28;20094;-72
2022/01/12 02:56:44;;;;;;;31.02;18.85;;;;;;;1.27;90.25;103578.56;5049121;28;20430;-73
2022/01/12 02:59:12;;;;;;;30.45;20.70;;;;;;;1.28;90.25;103579.44;5010758;28;20055;-73
2022/01/12 03:04:22;;;;;;;30.83;20.05;;;;;;;1.34;90.05;103598.00;5072105;28;20106;-74
2022/01/12 03:06:50;;;;;;;28.90;19.63;;;;;;;1.37;90.04;103593.03;5055174;28;20403;-73
2022/01/12 03:09:16;;;;;;;33.10;19.85;;;;;;;1.39;89.95;103596.59;5021812;28;20056;-72
2022/01/12 03:11:41;;;;;;;25.88;18.98;;;;;;;1.43;89.71;103608.06;5036808;28;20112;-72
2022/01/12 03:14:07;;;;;;;31.13;19.63;;;;;;;1.44;89.99;103610.75;5054829;28;20526;-73
2022/01/12 03:16:33;;;;;;;25.63;18.38;;;;;;;1.46;89.82;103613.44;5053700;28;20082;-72
2022/01/12 03:19:00;;;;;;;31.85;19.38;;;;;;;1.49;89.88;103624.00;5033274;28;20114;-72
2022/01/12 03:21:29;;;;;;;28.92;19.65;;;;;;;1.49;90.25;103622.31;5053527;28;20484;-73
2022/01/12 03:23:55;;;;;;;31.88;18.23;;;;;;;1.51;89.64;103625.03;5054754;28;20036;-72
2022/01/12 03:26:22;;;;;;;34.00;20.75;;;;;;;1.50;90.09;103625.81;5020227;28;20029;-72
2022/01/12 03:28:55;;;;;;;27.85;19.63;;;;;;;1.50;89.76;103623.22;5054206;28;20024;-72
2022/01/12 03:31:27;;;;;;;32.65;21.05;;;;;;;1.51;89.62;103622.44;5054805;28;20032;-73
2022/01/12 03:34:05;;;;;;;28.77;19.50;;;;;;;1.50;89.31;103623.22;5049811;28;20115;-73
2022/01/12 03:39:28;;;;;;;32.03;20.40;;;;;;;1.49;89.46;103624.00;5037739;28;20033;-72
2022/01/12 03:41:54;;;;;;;31.88;19.25;;;;;;;1.49;89.57;103613.66;5033074;28;20041;-72
2022/01/12 03:44:19;;;;;;;30.80;20.38;;;;;;;1.48;89.44;103620.53;5034212;28;20166;-72
2022/01/12 03:46:50;;;;;;;34.83;21.55;;;;;;;1.46;89.51;103623.78;5034437;28;20496;-72
2022/01/12 03:49:18;;;;;;;32.47;21.35;;;;;;;1.47;89.57;103621.31;5034462;28;20496;-72
2022/01/12 03:51:44;;;;;;;29.30;20.67;;;;;;;1.48;89.73;103622.19;5048349;28;20028;-71
2022/01/12 03:54:10;;;;;;;31.73;19.90;;;;;;;1.47;89.95;103621.31;5050691;28;20033;-72
2022/01/12 03:56:38;;;;;;;30.70;19.45;;;;;;;1.47;89.67;103625.59;5048373;28;20507;-71
2022/01/12 03:59:04;;;;;;;32.03;21.38;;;;;;;1.46;89.88;103629.84;5026744;28;20064;-71
2022/01/12 04:01:30;;;;;;;33.08;22.13;;;;;;;1.47;90.13;103643.69;5033560;28;20065;-71
2022/01/12 04:04:02;;;;;;;32.05;21.13;;;;;;;1.47;89.95;103643.69;5033502;28;20091;-71
2022/01/12 04:09:14;;;;;;;40.22;22.42;;;;;;;1.46;89.65;103652.22;5052754;28;20051;-71
2022/01/12 04:11:39;;;;;;;35.13;21.42;;;;;;;1.42;89.96;103657.94;5050552;28;20437;-71
2022/01/12 04:14:08;;;;;;;27.70;20.55;;;;;;;1.43;89.60;103654.59;5033932;28;20122;-71
2022/01/12 04:16:35;;;;;;;35.72;22.05;;;;;;;1.40;90.08;103655.25;5049215;28;20029;-72
2022/01/12 04:19:00;;;;;;;34.50;21.55;;;;;;;1.41;89.80;103656.16;5049700;28;20403;-70
2022/01/12 04:21:30;;;;;;;44.38;22.83;;;;;;;1.38;90.66;103652.56;5030665;28;20041;-71
2022/01/12 04:23:57;;;;;;;36.10;22.17;;;;;;;1.39;90.06;103653.47;5015422;28;20100;-71
2022/01/12 04:26:23;;;;;;;37.53;24.48;;;;;;;1.38;90.20;103664.59;5033607;28;20283;-71
2022/01/12 04:28:49;;;;;;;38.15;23.80;;;;;;;1.38;90.15;103662.03;5033441;28;20450;-71
2022/01/12 04:31:14;;;;;;;36.78;23.67;;;;;;;1.37;90.26;103661.09;5032909;28;20033;-71
2022/01/12 04:33:41;;;;;;;41.05;23.67;;;;;;;1.38;90.26;103651.69;5040777;28;20053;-71
2022/01/12 04:36:08;;;;;;;35.03;22.60;;;;;;;1.36;90.31;103641.22;5004816;28;20132;-71
2022/01/12 04:38:37;;;;;;;41.05;23.88;;;;;;;1.36;90.81;103637.75;5026150;28;20037;-72
2022/01/12 04:41:05;;;;;;;38.70;23.08;;;;;;;1.33;90.45;103630.66;5010536;28;20045;-71
2022/01/12 04:43:32;;;;;;;43.67;25.15;;;;;;;1.32;90.28;103646.97;5019919;28;20029;-72
2022/01/12 04:48:34;;;;;;;35.65;23.67;;;;;;;1.35;90.42;103634.28;5027838;28;20139;-72
2022/01/12 04:51:00;;;;;;;;;;;;;;;1.41;89.81;103630.31;5024150;28;20125;-73
2022/01/12 04:53:25;;;;;;;32.40;21.40;;;;;;;1.34;90.21;103629.88;5008686;28;20066;-73
2022/01/12 04:55:52;;;;;;;42.63;25.08;;;;;;;1.33;91.01;103629.78;5013326;28;20132;-72
2022/01/12 04:58:19;;;;;;;38.13;23.30;;;;;;;1.32;90.81;103631.47;5009874;28;20425;-72
2022/01/12 05:00:46;;;;;;;44.80;28.63;;;;;;;1.30;90.79;103620.13;5030282;28;20072;-73
2022/01/12 05:13:52;;;;;;;37.47;25.05;;;;;;;1.29;90.72;103633.81;5029641;28;20568;-72
2022/01/12 05:16:19;;;;;;;47.78;27.52;;;;;;;1.28;91.19;103633.69;5006913;28;20096;-72
2022/01/12 05:18:46;;;;;;;45.05;26.20;;;;;;;1.28;90.89;103637.22;5002075;28;20658;-72
2022/01/12 05:21:13;;;;;;;49.35;23.88;;;;;;;1.29;90.85;103641.56;5027775;28;20040;-73
2022/01/12 05:23:39;;;;;;;37.67;26.00;;;;;;;1.30;90.55;103642.47;5008761;28;20038;-72
2022/01/12 05:26:05;;;;;;;40.08;25.10;;;;;;;1.28;91.29;103641.47;5005374;28;20152;-72
2022/01/12 05:28:31;;;;;;;45.28;24.98;;;;;;;1.26;91.06;103641.34;5020611;28;20108;-72
2022/01/12 05:30:58;;;;;;;42.67;26.08;;;;;;;1.26;91.38;103653.38;5029319;28;20025;-72
2022/01/12 05:33:25;;;;;;;45.47;28.70;;;;;;;1.27;91.14;103653.47;5028491;28;20057;-72
2022/01/12 05:35:51;;;;;;;40.70;27.00;;;;;;;1.27;90.88;103652.59;5020586;28;20033;-72
2022/01/12 05:38:20;;;;;;;43.10;26.45;;;;;;;1.28;91.64;103652.72;5014365;28;20045;-72
2022/01/12 05:40:53;;;;;;;38.03;24.98;;;;;;;1.29;90.85;103657.06;5011813;28;20040;-72
2022/01/12 05:43:28;;;;;;;39.60;25.90;;;;;;;1.31;91.60;103670.13;5013822;28;20029;-72
2022/01/12 05:45:56;;;;;;;44.70;28.40;;;;;;;1.30;91.55;103663.16;5029224;28;20127;-72
2022/01/12 05:50:49;;;;;;;40.88;25.30;;;;;;;1.33;91.66;103663.38;5011684;28;20041;-73
2022/01/12 05:53:16;;;;;;;52.95;28.05;;;;;;;1.32;91.73;103666.72;5010965;28;20037;-72
2022/01/12 05:55:44;;;;;;;40.88;27.63;;;;;;;1.35;91.29;103666.94;5004868;28;20034;-72
2022/01/12 05:58:11;;;;;;;48.15;27.55;;;;;;;1.34;91.52;103655.72;4991269;28;20103;-73
2022/01/12 06:00:37;;;;;;;42.25;28.65;;;;;;;1.34;91.87;103660.88;5012559;28;20044;-72
2022/01/12 06:03:03;;;;;;;55.78;28.40;;;;;;;1.33;91.63;103663.38;5032478;28;20037;-72
2022/01/12 06:05:28;;;;;;;43.67;26.80;;;;;;;1.33;91.02;103653.03;5015663;28;20056;-73
2022/01/12 06:07:54;;;;;;;44.92;27.08;;;;;;;1.32;91.47;103659.91;5014667;28;20416;-72
2022/01/12 06:10:22;;;;;;;45.38;27.80;;;;;;;1.32;91.91;103666.72;5027459;28;20057;-72
2022/01/12 06:12:49;;;;;;;44.45;29.08;;;;;;;1.34;91.94;103660.88;5028893;28;20038;-71
2022/01/12 06:15:14;;;;;;;54.40;30.25;;;;;;;1.34;91.89;103671.22;5010016;28;20043;-72
2022/01/12 06:17:40;;;;;;;47.28;28.42;;;;;;;1.35;91.85;103677.28;4994167;28;20029;-72
2022/01/12 06:20:06;;;;;;;38.50;26.67;;;;;;;1.35;92.02;103673.03;5013570;28;20041;-72
2022/01/12 06:22:32;;;;;;;46.90;27.48;;;;;;;1.35;91.97;103678.19;4995114;28;20084;-72
2022/01/12 06:24:59;;;;;;;45.13;27.35;;;;;;;1.37;91.77;103692.09;5026022;28;20458;-71
2022/01/12 06:27:30;;;;;;;45.83;26.30;;;;;;;1.38;91.67;103693.91;5014036;28;20025;-72
2022/01/12 06:30:15;;;;;;;51.55;31.23;;;;;;;1.38;91.45;103704.25;5015066;28;20037;-72
2022/01/12 06:32:40;;;;;;;45.08;27.33;;;;;;;1.38;91.71;103709.41;5031771;28;20065;-71
2022/01/12 06:35:06;;;;;;;44.25;26.25;;;;;;;1.39;91.72;103710.31;4995834;28;20371;-71
2022/01/12 06:37:32;;;;;;;50.08;29.67;;;;;;;1.41;91.66;103710.41;4998169;28;20120;-71
2022/01/12 06:39:57;;;;;;;46.03;28.45;;;;;;;1.41;91.93;103719.09;4996854;28;20386;-71
2022/01/12 06:42:25;;;;;;;41.22;27.67;;;;;;;1.43;92.38;103729.53;5013617;28;20375;-71
2022/01/12 06:44:51;;;;;;;55.97;30.95;;;;;;;1.43;92.24;103729.53;5029400;28;20042;-71
2022/01/12 06:47:19;;;;;;;47.83;28.50;;;;;;;1.43;91.95;103742.44;4994009;28;20045;-72
2022/01/12 06:49:44;;;;;;;51.08;28.77;;;;;;;1.44;92.24;103741.63;5031429;28;20038;-72
2022/01/12 06:52:12;;;;;;;46.55;29.88;;;;;;;1.42;91.78;103735.47;5028118;28;20040;-72
2022/01/12 06:54:39;;;;;;;49.05;29.60;;;;;;;1.42;91.83;103727.72;5013541;28;20037;-72
2022/01/12 06:57:04;;;;;;;47.08;29.13;;;;;;;1.42;91.91;103738.94;5027285;28;20091;-72
2022/01/12 06:59:30;;;;;;;44.97;29.05;;;;;;;1.44;92.04;103737.38;5030721;28;20498;-72
2022/01/12 07:01:55;;;;;;;45.60;28.60;;;;;;;1.45;91.82;103733.09;5003254;28;20339;-71
2022/01/12 07:04:21;;;;;;;46.90;28.55;;;;;;;1.45;91.90;103741.78;5019334;28;20114;-72
2022/01/12 07:06:46;;;;;;;46.33;29.80;;;;;;;1.47;91.78;103749.66;5010350;28;20363;-71
2022/01/12 07:09:12;;;;;;;46.80;30.92;;;;;;;1.49;92.06;103750.63;5007753;28;20030;-72
2022/01/12 07:11:38;;;;;;;52.83;31.60;;;;;;;1.48;91.93;103756.59;4994300;28;20036;-72
2022/01/12 07:14:03;;;;;;;44.38;28.52;;;;;;;1.48;92.28;103762.66;5008122;28;20045;-72
2022/01/12 07:16:29;;;;;;;51.63;30.25;;;;;;;1.50;92.17;103770.53;4996779;28;20059;-72
2022/01/12 07:18:59;;;;;;;52.97;30.70;;;;;;;1.48;91.54;103759.16;5015101;28;20045;-72
2022/01/12 07:21:25;;;;;;;47.30;29.20;;;;;;;1.49;92.21;103755.81;5013907;28;20052;-72
2022/01/12 07:23:54;;;;;;;51.03;30.65;;;;;;;1.50;92.19;103761.09;5029608;28;20056;-72
2022/01/12 07:26:20;;;;;;;52.27;30.57;;;;;;;1.51;92.15;103762.00;4994118;28;20080;-72
2022/01/12 07:28:46;;;;;;;46.58;30.55;;;;;;;1.50;91.86;103761.09;5014374;28;20338;-72
2022/01/12 07:31:11;;;;;;;52.65;30.23;;;;;;;1.50;91.94;103763.66;4997431;28;20033;-72
2022/01/12 07:33:37;;;;;;;51.40;30.67;;;;;;;1.53;92.27;103760.41;5020462;28;20343;-72
2022/01/12 07:36:02;;;;;;;54.65;31.60;;;;;;;1.55;92.36;103769.16;5012068;28;20045;-72
2022/01/12 07:38:28;;;;;;;46.92;28.05;;;;;;;1.54;91.99;103791.53;5027089;28;20025;-71
2022/01/12 07:40:53;;;;;;;45.08;29.35;;;;;;;1.54;92.70;103798.41;5022522;28;20060;-72
2022/01/12 07:43:19;;;;;;;50.85;32.92;;;;;;;1.53;92.29;103799.19;4995014;28;20062;-72
2022/01/12 07:45:44;;;;;;;50.25;31.80;;;;;;;1.52;92.39;103798.28;5028189;28;20031;-73
2022/01/12 07:48:12;;;;;;;53.22;31.55;;;;;;;1.53;92.61;103797.47;4995237;28;20439;-71
2022/01/12 07:50:38;;;;;;;46.33;28.48;;;;;;;1.54;92.24;103803.56;4992792;28;20026;-72
2022/01/12 07:53:03;;;;;;;43.15;29.05;;;;;;;1.55;92.50;103800.19;5016274;28;20459;-72
2022/01/12 07:55:29;;;;;;;52.35;30.52;;;;;;;1.55;92.66;103810.53;5013761;28;20030;-72
2022/01/12 07:57:54;;;;;;;50.13;31.27;;;;;;;1.55;92.31;103811.44;5005119;28;20049;-72
2022/01/12 08:00:20;;;;;;;53.55;31.83;;;;;;;1.56;92.48;103818.38;5032795;28;20116;-72
2022/01/12 08:02:52;;;;;;;47.58;29.08;;;;;;;1.58;92.25;103820.19;5004482;28;20029;-72
2022/01/12 08:05:18;;;;;;;50.78;31.20;;;;;;;1.60;92.49;103824.69;5021604;28;20607;-72
2022/01/12 08:07:47;;;;;;;48.30;30.40;;;;;;;1.61;91.97;103831.66;5028831;28;20437;-72
2022/01/12 08:10:13;;;;;;;51.85;31.17;;;;;;;1.62;92.31;103837.72;5030363;28;20037;-72
2022/01/12 08:12:39;;;;;;;49.80;31.85;;;;;;;1.63;92.84;103842.13;5015639;28;20025;-72
2022/01/12 08:15:06;;;;;;;53.88;32.65;;;;;;;1.62;92.56;103840.31;5015343;28;20033;-72
2022/01/12 08:17:33;;;;;;;51.10;33.80;;;;;;;1.63;92.86;103853.34;5029143;28;20445;-71
2022/01/12 08:20:00;;;;;;;57.20;34.28;;;;;;;1.62;93.11;103854.13;5029162;28;20073;-72
2022/01/12 08:22:25;;;;;;;56.13;32.65;;;;;;;1.64;92.84;103859.41;4996927;28;20075;-72
2022/01/12 08:24:51;;;;;;;64.90;35.47;;;;;;;1.65;92.68;103850.88;5011594;28;20629;-72
2022/01/12 08:27:19;;;;;;;74.65;34.53;;;;;;;1.67;93.17;103857.06;5026510;28;20117;-72
2022/01/12 08:29:49;;;;;;;58.22;34.40;;;;;;;1.69;92.61;103856.38;4998155;28;20033;-72
2022/01/12 08:32:14;;;;;;;67.80;35.40;;;;;;;1.72;92.89;103860.88;5028303;28;20030;-72
2022/01/12 08:34:40;;;;;;;60.00;34.38;;;;;;;1.75;92.49;103866.25;5030914;28;20358;-72
2022/01/12 08:37:05;;;;;;;79.15;37.50;;;;;;;1.76;93.23;103862.91;5052109;28;20028;-72
2022/01/12 08:39:31;;;;;;;77.43;36.55;;;;;;;1.77;92.93;103868.97;5035661;28;20071;-72
2022/01/12 08:41:56;;;;;;;77.43;36.80;;;;;;;1.78;93.06;103863.00;5044687;28;20055;-71
2022/01/12 08:44:21;;;;;;;64.43;34.22;;;;;;;1.78;92.73;103861.34;5021788;28;20092;-72
2022/01/12 08:46:47;;;;;;;73.32;37.60;;;;;;;1.81;93.01;103858.97;5036667;28;20055;-72
2022/01/12 08:49:12;;;;;;;64.55;37.05;;;;;;;1.84;93.64;103853.09;5032447;28;20471;-72
2022/01/12 08:51:38;;;;;;;56.42;34.08;;;;;;;1.84;93.55;103859.19;5021517;28;20565;-72
2022/01/12 08:54:04;;;;;;;72.30;34.92;;;;;;;1.86;93.60;103860.19;5018371;28;20445;-72
2022/01/12 08:56:31;;;;;;;64.97;34.15;;;;;;;1.91;93.10;103865.69;5043626;28;20033;-72
2022/01/12 08:58:56;;;;;;;63.72;36.60;;;;;;;1.94;93.42;103863.34;5036423;28;20060;-72
2022/01/12 09:01:24;;;;;;;70.18;37.83;;;;;;;2.00;93.78;103862.91;5036385;28;20067;-72
2022/01/12 09:03:49;;;;;;;62.25;35.15;;;;;;;2.04;93.17;103870.97;5051552;28;20048;-72
2022/01/12 09:06:16;;;;;;;79.50;37.65;;;;;;;2.08;93.97;103867.84;5036801;28;20381;-72
2022/01/12 09:08:44;;;;;;;68.05;35.05;;;;;;;2.10;93.29;103877.38;5034763;28;20033;-71
2022/01/12 09:11:11;;;;;;;67.13;35.15;;;;;;;2.12;93.52;103883.56;5032491;28;20102;-72
2022/01/12 09:13:45;;;;;;;71.60;36.97;;;;;;;2.17;93.85;103888.28;5033265;28;20111;-72
2022/01/12 09:16:13;;;;;;;74.00;35.50;;;;;;;2.20;93.97;103890.22;5045108;28;20428;-72
2022/01/12 09:18:43;;;;;;;60.20;35.72;;;;;;;2.24;93.93;103897.38;5053216;28;20016;-72
2022/01/12 09:21:09;;;;;;;73.88;37.67;;;;;;;2.28;93.44;103899.38;5051232;28;20074;-72
2022/01/12 09:23:35;;;;;;;74.35;36.38;;;;;;;2.31;93.87;103897.00;5035435;28;20127;-72
2022/01/12 09:26:02;;;;;;;67.80;36.88;;;;;;;2.32;93.50;103898.81;5052308;28;20111;-72
2022/01/12 09:28:28;;;;;;;76.57;36.47;;;;;;;2.33;93.78;103900.63;5014038;28;20032;-72
2022/01/12 09:30:53;;;;;;;90.20;37.58;;;;;;;2.35;93.88;103911.97;5033010;28;20033;-72
2022/01/12 09:33:20;;;;;;;68.45;34.90;;;;;;;2.36;93.75;103908.59;5016661;28;20057;-72
2022/01/12 09:35:49;;;;;;;80.30;34.75;;;;;;;2.37;93.83;103918.19;5029970;28;20102;-72
2022/01/12 09:38:14;;;;;;;73.13;36.92;;;;;;;2.39;93.85;103921.75;5024281;28;20451;-72
2022/01/12 09:40:40;;;;;;;65.85;32.72;;;;;;;2.40;93.15;103926.16;5055560;28;20020;-72
2022/01/12 09:43:06;;;;;;;53.63;31.90;;;;;;;2.41;94.07;103920.19;5021619;28;20036;-72
2022/01/12 09:45:34;;;;;;;77.88;35.05;;;;;;;2.42;93.59;103932.34;5056835;28;20032;-72
2022/01/12 09:48:02;;;;;;;86.20;36.47;;;;;;;2.42;93.75;103937.50;5037876;28;20720;-72
2022/01/12 09:50:27;;;;;;;90.45;35.85;;;;;;;2.45;94.09;103938.53;5053738;28;20089;-72
2022/01/12 09:52:53;;;;;;;81.60;32.22;;;;;;;2.43;93.64;103938.44;5019643;28;20040;-72
2022/01/12 09:55:19;;;;;;;66.25;28.75;;;;;;;2.45;94.05;103941.13;5038148;28;20064;-72
2022/01/12 09:57:45;;;;;;;41.97;23.67;;;;;;;2.41;93.98;103940.91;5055561;28;20119;-71
2022/01/12 10:00:13;;;;;;;57.78;24.90;;;;;;;2.42;93.68;103953.03;5039919;28;20131;-72
2022/01/12 10:02:41;;;;;;;73.05;28.67;;;;;;;2.39;93.46;103947.66;5042454;28;20101;-72
2022/01/12 10:05:09;;;;;;;69.90;26.02;;;;;;;2.38;93.77;103963.06;5047704;28;20029;-72
2022/01/12 10:07:34;;;;;;;65.88;26.85;;;;;;;2.37;93.99;103957.00;5055045;28;20476;-71
2022/01/12 10:10:17;;;;;;;70.80;23.77;;;;;;;2.36;93.34;103967.25;5022409;28;20064;-72
2022/01/12 10:12:57;;;;;;;58.15;28.00;;;;;;;2.35;94.34;103958.56;5048763;28;20520;-72
2022/01/12 10:15:24;;;;;;;77.00;25.10;;;;;;;2.33;93.86;103957.56;5053320;28;20334;-72
2022/01/12 10:17:50;;;;;;;84.07;26.30;;;;;;;2.33;93.74;103967.91;5039141;28;20497;-72
2022/01/12 10:20:25;;;;;;;81.93;26.27;;;;;;;2.36;93.54;103962.06;5034129;28;20039;-72
2022/01/12 10:23:09;;;;;;;58.55;25.00;;;;;;;2.33;94.30;103960.16;5053994;28;20048;-72
2022/01/12 10:25:35;;;;;;;97.65;27.65;;;;;;;2.30;93.66;103957.34;5057446;28;20114;-72
2022/01/12 10:28:13;;;;;;;76.78;26.33;;;;;;;2.31;93.90;103953.06;5057678;28;20033;-72
2022/01/12 10:30:39;;;;;;;93.50;27.48;;;;;;;2.30;93.75;103952.19;5073232;28;20120;-72
2022/01/12 10:33:07;;;;;;;101.47;26.30;;;;;;;2.32;93.99;103952.28;5048352;28;20060;-72
2022/01/12 10:35:35;;;;;;;109.07;25.50;;;;;;;2.32;94.19;103953.16;5050798;28;20496;-72
2022/01/12 10:38:14;;;;;;;121.45;26.58;;;;;;;2.35;93.83;103952.50;5054177;28;20469;-73
2022/01/12 10:40:46;;;;;;;114.95;26.30;;;;;;;2.29;94.11;103952.97;5056500;28;20021;-72
2022/01/12 10:43:44;;;;;;;151.02;28.08;;;;;;;2.29;94.49;103960.72;5061463;28;20021;-73
2022/01/12 10:46:14;;;;;;;84.53;21.95;;;;;;;2.28;94.46;103961.50;5019859;28;20040;-72
2022/01/12 10:48:45;;;;;;;112.78;23.92;;;;;;;2.30;94.43;103956.44;5054206;28;20020;-72
2022/01/12 10:51:16;;;;;;;139.98;28.65;;;;;;;2.29;94.08;103959.84;5052243;28;20036;-72
2022/01/12 10:53:41;;;;;;;;;;;;;;;2.33;94.56;103960.16;5054541;28;20024;-72
2022/01/12 10:56:09;;;;;;;125.60;26.35;;;;;;;2.31;93.60;103961.72;5050787;28;19965;-73
2022/01/12 10:58:37;;;;;;;99.28;24.48;;;;;;;2.29;93.68;103958.13;5055742;28;20127;-73
2022/01/12 11:01:03;;;;;;;68.22;25.35;;;;;;;2.28;93.95;103961.50;5045073;28;20093;-72
2022/01/12 11:03:32;;;;;;;74.25;23.20;;;;;;;2.29;93.69;103968.47;5035800;28;20476;-72
2022/01/12 11:05:58;;;;;;;87.00;25.38;;;;;;;2.29;94.27;103968.47;5036462;28;20036;-72
2022/01/12 11:08:27;;;;;;;63.22;24.50;;;;;;;2.32;94.06;103960.94;5050314;28;20111;-73
2022/01/12 11:10:54;;;;;;;52.13;24.27;;;;;;;2.36;94.06;103962.97;5047839;28;20111;-72
2022/01/12 11:13:20;;;;;;;54.13;24.88;;;;;;;2.39;93.91;103959.69;5035145;28;20502;-72
2022/01/12 11:15:45;;;;;;;62.38;26.73;;;;;;;2.45;94.15;103959.25;5036277;28;20024;-72
2022/01/12 11:18:12;;;;;;;69.38;28.45;;;;;;;2.46;93.79;103959.34;5033995;28;20032;-72
2022/01/12 11:20:41;;;;;;;43.80;23.15;;;;;;;2.49;93.86;103961.28;5033242;28;20090;-72
2022/01/12 11:23:09;;;;;;;62.05;25.23;;;;;;;2.46;94.34;103963.59;5066373;28;20508;-72
2022/01/12 11:25:42;;;;;;;53.10;24.83;;;;;;;2.48;93.95;103972.41;5052053;28;20024;-72
2022/01/12 11:28:20;;;;;;;58.50;28.15;;;;;;;2.50;93.53;103978.56;5051283;28;20083;-72
2022/01/12 11:30:50;;;;;;;47.88;24.77;;;;;;;2.48;93.08;103972.41;5052837;28;20051;-72
2022/01/12 11:33:21;;;;;;;60.45;24.65;;;;;;;2.47;92.72;103976.69;5050181;28;20079;-72
2022/01/12 11:35:52;;;;;;;48.28;23.90;;;;;;;2.48;92.80;103985.34;5050680;28;20017;-72
2022/01/12 11:38:20;;;;;;;;;;;;;;;2.52;93.67;103977.03;5067640;28;20031;-72
2022/01/12 11:40:47;;;;;;;58.25;24.70;;;;;;;2.47;92.79;103976.69;5050996;28;20417;-72
2022/01/12 11:43:25;;;;;;;45.75;23.45;;;;;;;2.49;93.05;103974.22;5052866;28;20094;-72
2022/01/12 11:46:12;;;;;;;46.63;24.33;;;;;;;2.54;92.68;103975.41;5046372;28;20086;-72
2022/01/12 11:48:44;;;;;;;45.25;23.55;;;;;;;2.58;93.36;103959.31;5063661;28;20097;-72
2022/01/12 11:51:10;;;;;;;56.10;25.55;;;;;;;2.52;92.34;103953.72;5068738;28;20032;-72
2022/01/12 11:53:52;;;;;;;51.45;26.52;;;;;;;2.55;92.05;103946.16;5050019;28;20086;-72
2022/01/12 11:56:24;;;;;;;51.35;27.50;;;;;;;2.50;92.28;103939.75;5051415;28;20082;-72
2022/01/12 11:59:05;;;;;;;47.45;25.63;;;;;;;2.51;92.51;103962.25;5050085;28;20354;-72
2022/01/12 12:02:10;;;;;;;49.53;24.60;;;;;;;2.51;91.85;103963.16;5052229;28;20025;-72
2022/01/12 12:04:38;;;;;;;63.22;25.58;;;;;;;2.48;91.90;103964.63;5068142;28;20040;-72
2022/01/12 12:07:11;;;;;;;72.57;37.35;;;;;;;2.47;91.83;103961.16;5015723;28;21111;-73
2022/01/12 12:09:48;;;;;;;52.83;25.83;;;;;;;2.48;92.72;103964.63;5068989;28;20078;-72
2022/01/12 12:12:23;;;;;;;44.53;25.35;;;;;;;2.50;92.83;103970.81;5052017;28;20029;-72
2022/01/12 12:14:53;;;;;;;51.95;27.05;;;;;;;2.50;92.28;103968.22;5051671;28;20029;-72
2022/01/12 12:17:20;;;;;;;45.08;24.77;;;;;;;2.56;92.73;103960.91;5068730;28;20034;-72
2022/01/12 12:19:47;;;;;;;46.53;26.08;;;;;;;2.57;92.32;103965.28;5050886;28;20558;-72
2022/01/12 12:22:12;;;;;;;55.40;28.65;;;;;;;2.58;92.27;103956.72;5050219;28;20039;-72
2022/01/12 12:24:38;;;;;;;48.85;25.58;;;;;;;2.58;91.68;103969.69;5051828;28;20028;-72
2022/01/12 12:27:05;;;;;;;50.53;26.38;;;;;;;2.57;92.53;103968.78;5035327;28;20674;-72
2022/01/12 12:29:31;;;;;;;56.42;25.48;;;;;;;2.57;92.21;103973.97;5019390;28;21446;-72
2022/01/12 12:31:57;;;;;;;46.50;24.10;;;;;;;2.61;92.10;103977.66;5017166;28;20024;-72